Time;durP1;ratioP1;P1;durP2;ratioP2;P2;SDS_P1;SDS_P2;PMS_P1;PMS_P2;Temp;Humidity;BMP_temperature;BMP_pressure;BME280_temperature;BME280_humidity;BME280_pressure;Samples;Min_cycle;Max_cycle;Signal;HPM_P1;HPM_P2
2023/11/23 00:03:50;;;;;;;15.20;9.80;;;;;;;18.10;100.00;101187.03;10449052;28;20489;-86
2023/11/23 00:09:14;;;;;;;12.88;9.65;;;;;;;18.13;100.00;101189.66;10439599;28;20041;-85
2023/11/23 00:14:37;;;;;;;14.07;10.85;;;;;;;17.90;100.00;101201.44;10450840;28;20040;-86
2023/11/23 00:20:02;;;;;;;18.73;10.65;;;;;;;17.72;100.00;101203.34;10450742;28;20571;-86
2023/11/23 00:25:27;;;;;;;15.65;11.48;;;;;;;17.64;100.00;101208.72;10447270;28;20053;-86
2023/11/23 00:30:50;;;;;;;15.20;10.35;;;;;;;17.72;100.00;101216.69;10449428;28;20128;-86
2023/11/23 00:36:16;;;;;;;11.98;9.13;;;;;;;17.61;100.00;101214.06;10457426;28;20124;-86
2023/11/23 00:41:39;;;;;;;13.55;8.45;;;;;;;17.70;100.00;101211.38;10458097;28;20056;-86
2023/11/23 00:47:03;;;;;;;13.07;8.70;;;;;;;17.77;100.00;101215.78;10456820;28;20057;-86
2023/11/23 00:52:28;;;;;;;12.32;9.18;;;;;;;17.62;100.00;101212.28;10457833;28;20454;-86
2023/11/23 00:57:52;;;;;;;14.02;10.57;;;;;;;17.54;100.00;101213.19;10444187;28;20439;-87
2023/11/23 01:03:16;;;;;;;12.75;10.52;;;;;;;17.38;100.00;101224.88;10457095;28;20057;-86
2023/11/23 01:08:41;;;;;;;11.13;9.38;;;;;;;17.35;100.00;101216.84;10456838;28;20045;-86
2023/11/23 01:14:04;;;;;;;16.58;9.65;;;;;;;17.56;100.00;101215.84;10436037;28;20054;-87
2023/11/23 01:19:27;;;;;;;13.52;10.40;;;;;;;17.49;100.00;101227.47;10402726;28;20053;-87
2023/11/23 01:24:52;;;;;;;10.43;9.30;;;;;;;17.75;100.00;101225.56;10416063;28;20099;-87
2023/11/23 01:30:15;;;;;;;14.30;9.73;;;;;;;17.95;100.00;101228.09;10416343;28;20057;-86
2023/11/23 01:35:39;;;;;;;13.48;9.38;;;;;;;18.00;100.00;101204.91;10442686;28;20056;-86
2023/11/23 01:41:03;;;;;;;10.70;8.50;;;;;;;18.05;100.00;101203.06;10455650;28;20496;-86
2023/11/23 01:46:27;;;;;;;14.85;9.25;;;;;;;18.04;100.00;101220.03;10439961;28;20048;-85
2023/11/23 01:51:50;;;;;;;9.10;8.10;;;;;;;18.06;100.00;101212.88;10455237;28;20049;-86
2023/11/23 01:57:15;;;;;;;11.38;7.20;;;;;;;18.38;100.00;101215.25;10442555;28;20114;-87
2023/11/23 02:02:41;;;;;;;13.73;8.80;;;;;;;18.04;100.00;101198.66;10431335;28;20067;-84
2023/11/23 02:08:05;;;;;;;13.40;7.72;;;;;;;17.72;100.00;101203.34;10429051;28;20497;-85
2023/11/23 02:13:31;;;;;;;11.07;8.23;;;;;;;17.53;100.00;101198.06;10455822;28;20053;-86
2023/11/23 02:18:55;;;;;;;18.67;9.10;;;;;;;17.63;100.00;101206.06;10441670;28;20532;-87
2023/11/23 02:24:19;;;;;;;10.82;6.47;;;;;;;17.79;100.00;101213.06;10414605;28;20099;-88
2023/11/23 02:29:42;;;;;;;10.23;8.07;;;;;;;17.91;100.00;101207.66;10412512;28;20580;-82
2023/11/23 02:35:06;;;;;;;12.70;8.48;;;;;;;17.72;100.00;101209.53;10398795;28;20091;-88
2023/11/23 02:40:31;;;;;;;11.57;7.78;;;;;;;17.56;100.00;101204.28;10419623;28;20052;-91
2023/11/23 02:45:55;;;;;;;8.90;7.32;;;;;;;17.57;100.00;101211.41;10399343;28;20113;-91
2023/11/23 02:51:19;;;;;;;9.13;6.53;;;;;;;17.63;100.00;101200.72;10412710;28;20049;-91
2023/11/23 02:56:44;;;;;;;10.75;5.72;;;;;;;17.73;100.00;101203.31;10439852;28;20128;-91
2023/11/23 03:02:15;;;;;;;8.57;4.15;;;;;;;17.86;100.00;101217.47;10451689;28;20041;-91
2023/11/23 03:07:40;;;;;;;8.90;4.80;;;;;;;17.93;100.00;101221.88;10449367;28;20048;-91
2023/11/23 03:13:07;;;;;;;7.40;4.60;;;;;;;18.02;100.00;101205.78;10450930;28;20142;-91
2023/11/23 03:18:30;;;;;;;8.20;3.55;;;;;;;17.97;100.00;101222.75;10451982;28;20072;-91
2023/11/23 03:23:54;;;;;;;8.95;4.18;;;;;;;18.11;100.00;101219.09;10447135;28;20049;-90
2023/11/23 03:29:18;;;;;;;8.35;4.03;;;;;;;18.11;100.00;101216.41;10436494;28;20053;-90
2023/11/23 03:34:42;;;;;;;6.55;2.92;;;;;;;17.99;100.00;101210.25;10411054;28;20165;-90
2023/11/23 03:40:07;;;;;;;4.88;2.80;;;;;;;18.04;100.00;101219.16;10447923;28;20159;-90
2023/11/23 03:45:34;;;;;;;6.45;3.13;;;;;;;18.25;100.00;101230.53;10442892;28;20413;-91
2023/11/23 03:50:57;;;;;;;6.63;2.90;;;;;;;18.46;100.00;101226.78;10409829;28;20046;-90
2023/11/23 03:56:20;;;;;;;5.05;2.60;;;;;;;18.55;100.00;101234.75;10410315;28;20111;-90
2023/11/23 04:01:48;;;;;;;6.90;3.20;;;;;;;18.49;100.00;101255.28;10443592;28;20067;-90
2023/11/23 04:07:12;;;;;;;4.57;2.88;;;;;;;18.58;100.00;101244.53;10395336;28;20053;-90
2023/11/23 04:12:35;;;;;;;16.85;2.85;;;;;;;18.55;100.00;101240.13;10409079;28;20056;-90
2023/11/23 04:18:00;;;;;;;10.73;3.15;;;;;;;18.45;100.00;101258.88;10443403;28;20140;-90
2023/11/23 04:23:23;;;;;;;6.53;3.58;;;;;;;18.72;100.00;101264.00;10449339;28;20069;-90
2023/11/23 04:28:51;;;;;;;6.93;2.92;;;;;;;18.69;100.00;101270.28;10450749;28;20102;-90
2023/11/23 04:34:16;;;;;;;5.03;2.53;;;;;;;18.63;100.00;101289.06;10450770;28;20056;-90
2023/11/23 04:39:39;;;;;;;7.82;2.78;;;;;;;18.52;100.00;101292.69;10450374;28;20053;-90
2023/11/23 04:45:03;;;;;;;9.07;3.35;;;;;;;18.56;100.00;101283.78;10450572;28;20470;-91
2023/11/23 04:50:27;;;;;;;4.80;3.17;;;;;;;18.56;100.00;101284.69;10438600;28;20069;-91
2023/11/23 04:55:51;;;;;;;7.75;2.90;;;;;;;18.55;100.00;101292.69;10438602;28;20485;-91
2023/11/23 05:01:16;;;;;;;9.77;3.15;;;;;;;18.43;100.00;101308.81;10449933;28;20489;-91
2023/11/23 05:06:41;;;;;;;7.75;3.00;;;;;;;18.61;100.00;101298.00;10450382;28;20099;-91
2023/11/23 05:12:05;;;;;;;8.25;3.22;;;;;;;18.80;100.00;101296.03;10450258;28;20045;-90
2023/11/23 05:17:29;;;;;;;10.50;3.05;;;;;;;18.83;100.00;101310.28;10450098;28;20045;-91
2023/11/23 05:22:54;;;;;;;7.30;3.15;;;;;;;18.79;100.00;101300.50;10457063;28;20056;-91
2023/11/23 05:28:17;;;;;;;5.50;2.85;;;;;;;18.80;100.00;101310.31;10457075;28;20049;-93
2023/11/23 05:33:40;;;;;;;10.15;3.47;;;;;;;18.94;100.00;101312.84;10450683;28;20053;-92
2023/11/23 05:39:05;;;;;;;7.72;3.28;;;;;;;19.09;100.00;101323.41;10455944;28;20052;-93
2023/11/23 05:44:30;;;;;;;9.65;3.22;;;;;;;19.25;100.00;101332.16;10447337;28;20052;-93
2023/11/23 05:49:53;;;;;;;12.73;3.28;;;;;;;19.50;100.00;101333.66;10415832;28;20061;-92
2023/11/23 05:55:18;;;;;;;6.55;3.25;;;;;;;19.53;100.00;101347.03;10423020;28;20041;-93
2023/11/23 06:00:42;;;;;;;8.10;3.47;;;;;;;19.69;100.00;101348.59;10452697;28;20060;-93
2023/11/23 06:06:06;;;;;;;12.10;4.65;;;;;;;19.84;100.00;101344.84;10413742;28;20049;-93
2023/11/23 06:11:32;;;;;;;13.48;6.90;;;;;;;20.02;100.00;101341.91;10419982;28;20052;-93
2023/11/23 06:16:55;;;;;;;13.60;7.25;;;;;;;20.39;100.00;101345.00;10454811;28;20063;-92
2023/11/23 06:22:19;;;;;;;10.80;8.18;;;;;;;20.57;100.00;101357.22;10415375;28;20099;-93
2023/11/23 06:27:43;;;;;;;9.20;5.38;;;;;;;20.61;100.00;101361.66;10432733;28;20053;-92
2023/11/23 06:33:08;;;;;;;16.98;10.70;;;;;;;20.77;100.00;101378.38;10453495;28;20056;-93
2023/11/23 06:38:31;;;;;;;24.80;15.30;;;;;;;21.30;100.00;101377.47;10453546;28;20037;-89
2023/11/23 06:44:07;;;;;;;26.75;17.67;;;;;;;21.95;100.00;101373.47;10444853;28;20049;-92
2023/11/23 06:49:32;;;;;;;24.37;14.87;;;;;;;23.08;100.00;101350.19;10446266;28;20106;-93
2023/11/23 06:54:59;;;;;;;23.80;17.63;;;;;;;22.31;100.00;101373.63;10448796;28;20068;-93
2023/11/23 07:00:26;;;;;;;46.13;31.33;;;;;;;22.46;100.00;101373.25;10462794;28;20061;-94
2023/11/23 07:05:50;;;;;;;76.25;49.22;;;;;;;22.62;100.00;101375.53;10465127;28;20041;-93
2023/11/23 07:11:18;;;;;;;55.17;34.53;;;;;;;23.01;100.00;101378.19;10464084;28;20327;-92
2023/11/23 07:16:43;;;;;;;13.00;5.95;;;;;;;26.26;100.00;101382.97;10457144;28;20045;-91
2023/11/23 07:22:06;;;;;;;10.57;4.93;;;;;;;29.17;100.00;101366.97;10464877;28;20099;-90
2023/11/23 07:27:33;;;;;;;16.67;7.35;;;;;;;31.56;100.00;101362.38;10443293;28;20079;-92
2023/11/23 07:33:00;;;;;;;8.30;4.35;;;;;;;33.37;92.28;101374.16;10448915;28;20044;-93
2023/11/23 07:38:24;;;;;;;10.68;4.93;;;;;;;33.05;90.78;101385.47;10451006;28;20060;-90
2023/11/23 07:43:47;;;;;;;13.02;6.97;;;;;;;33.37;92.46;101387.84;10451476;28;20049;-92
2023/11/23 07:49:13;;;;;;;8.65;4.30;;;;;;;34.84;77.10;101382.59;10436692;28;20081;-92
2023/11/23 07:54:37;;;;;;;10.23;3.90;;;;;;;34.81;66.53;101382.81;10465417;28;20057;-89
2023/11/23 08:00:01;;;;;;;9.80;2.50;;;;;;;32.51;91.69;101394.59;10450617;28;20122;-85
2023/11/23 08:05:31;;;;;;;8.23;4.07;;;;;;;33.61;86.92;101388.84;10464984;28;20060;-90
2023/11/23 08:10:58;;;;;;;8.85;3.70;;;;;;;32.76;78.92;101397.47;10449607;28;20409;-90
2023/11/23 08:16:22;;;;;;;11.05;3.17;;;;;;;31.74;86.89;101386.81;10448880;28;20048;-91
2023/11/23 08:21:47;;;;;;;10.32;3.00;;;;;;;30.04;98.08;101379.53;10447744;28;20090;-91
2023/11/23 08:27:11;;;;;;;9.00;2.70;;;;;;;30.51;98.14;101376.00;10448839;28;20056;-91
2023/11/23 08:32:34;;;;;;;9.85;2.83;;;;;;;34.54;63.29;101380.25;10449031;28;20119;-90
2023/11/23 08:37:59;;;;;;;6.10;2.92;;;;;;;36.25;51.61;101389.72;10434405;28;20045;-91
2023/11/23 08:43:22;;;;;;;8.88;2.90;;;;;;;37.40;45.83;101368.91;10449938;28;20056;-91
2023/11/23 08:48:46;;;;;;;6.22;2.25;;;;;;;35.83;46.11;101355.59;10448238;28;20049;-88
2023/11/23 08:54:12;;;;;;;7.97;3.17;;;;;;;32.82;45.99;101347.84;10451670;28;20501;-95
2023/11/23 08:59:37;;;;;;;10.07;2.50;;;;;;;31.69;47.50;101350.72;10456975;28;20076;-93
2023/11/23 09:05:06;;;;;;;5.95;2.40;;;;;;;31.80;45.80;101329.06;10457712;28;20052;-93
2023/11/23 09:10:32;;;;;;;6.68;2.65;;;;;;;30.64;48.80;101317.06;10445482;28;20081;-93
2023/11/23 09:15:56;;;;;;;6.95;2.75;;;;;;;30.23;55.48;101314.00;10445966;28;20080;-91
2023/11/23 09:21:19;;;;;;;8.60;2.90;;;;;;;32.45;45.11;101328.41;10438816;28;20134;-92
2023/11/23 09:26:47;;;;;;;6.63;2.83;;;;;;;33.06;43.15;101324.25;10455711;28;20045;-92
2023/11/23 09:32:14;;;;;;;8.60;2.90;;;;;;;32.38;41.99;101327.06;10457580;28;20053;-90
2023/11/23 09:37:39;;;;;;;7.70;2.70;;;;;;;30.01;46.09;101321.63;10442699;28;20071;-92
2023/11/23 09:43:05;;;;;;;5.47;2.30;;;;;;;30.22;45.99;101297.72;10453869;28;20099;-89
2023/11/23 09:48:33;;;;;;;8.95;2.53;;;;;;;28.91;49.66;101300.34;10441093;28;20091;-89
2023/11/23 09:53:59;;;;;;;6.85;2.53;;;;;;;28.22;52.11;101293.88;10450754;28;20106;-89
2023/11/23 09:59:25;;;;;;;9.57;2.42;;;;;;;29.04;50.92;101288.81;10445343;28;20091;-90
2023/11/23 10:04:49;;;;;;;7.65;3.15;;;;;;;28.73;50.49;101267.75;10454789;28;20110;-90
2023/11/23 10:10:14;;;;;;;6.97;3.05;;;;;;;27.98;51.40;101278.72;10456145;28;20057;-90
2023/11/23 10:15:40;;;;;;;6.45;2.22;;;;;;;29.78;48.81;101275.72;10440933;28;20048;-90
2023/11/23 10:21:04;;;;;;;7.00;3.00;;;;;;;29.67;45.12;101282.63;10454705;28;20060;-89
2023/11/23 10:26:27;;;;;;;5.43;2.03;;;;;;;27.99;50.61;101281.38;10440497;28;20106;-89
2023/11/23 10:31:53;;;;;;;8.82;2.47;;;;;;;29.48;44.83;101290.03;10439447;28;20048;-88
2023/11/23 10:37:18;;;;;;;4.97;2.30;;;;;;;30.32;43.56;101288.94;10453036;28;20505;-85
2023/11/23 10:42:43;;;;;;;5.22;2.05;;;;;;;32.19;40.79;101282.78;10453416;28;20037;-88
2023/11/23 10:48:12;;;;;;;9.18;2.40;;;;;;;31.77;39.87;101278.22;10449521;28;20047;-88
2023/11/23 10:53:37;;;;;;;8.90;2.80;;;;;;;28.91;46.00;101266.81;10453743;28;20048;-88
2023/11/23 10:59:07;;;;;;;6.88;2.00;;;;;;;27.48;51.47;101272.97;10452533;28;20091;-85
2023/11/23 11:04:33;;;;;;;8.07;2.70;;;;;;;26.23;56.86;101267.56;10452833;28;20045;-82
2023/11/23 11:10:05;;;;;;;6.25;2.53;;;;;;;25.51;68.30;101258.69;10451347;28;20052;-90
2023/11/23 11:15:31;;;;;;;5.70;2.58;;;;;;;25.51;67.09;101258.69;10439483;28;20098;-91
2023/11/23 11:21:10;;;;;;;5.93;3.03;;;;;;;26.01;66.37;101248.59;10444809;28;20429;-88
2023/11/23 11:26:35;;;;;;;5.85;2.72;;;;;;;26.42;64.57;101241.50;10420591;28;20045;-84
2023/11/23 11:31:59;;;;;;;6.72;2.80;;;;;;;25.77;64.55;101246.88;10450410;28;20051;-90
2023/11/23 11:37:26;;;;;;;7.05;2.42;;;;;;;25.71;67.16;101252.53;10437215;28;20040;-88
2023/11/23 11:42:50;;;;;;;8.35;3.53;;;;;;;25.44;72.04;101258.97;10445389;28;20041;-86
2023/11/23 11:48:15;;;;;;;5.00;3.80;;;;;;;24.47;82.86;101268.72;10448120;28;20056;-89
2023/11/23 11:53:46;;;;;;;11.13;3.63;;;;;;;24.14;90.82;101276.97;10448205;28;20048;-90
2023/11/23 11:59:14;;;;;;;13.77;4.22;;;;;;;24.57;87.39;101251.28;10448358;28;20052;-90
2023/11/23 12:04:42;;;;;;;6.50;2.88;;;;;;;24.52;87.93;101262.25;10449605;28;20455;-84
2023/11/23 12:10:09;;;;;;;6.82;2.97;;;;;;;24.34;90.21;101260.16;10446795;28;20060;-87
2023/11/23 12:15:33;;;;;;;6.70;2.60;;;;;;;24.42;93.46;101208.59;10440366;28;20045;-83
2023/11/23 12:20:59;;;;;;;6.10;3.00;;;;;;;24.57;92.81;101235.94;10441381;28;20107;-81
2023/11/23 12:26:26;;;;;;;9.85;2.60;;;;;;;25.43;85.60;101217.53;10442308;28;20056;-81
2023/11/23 12:31:50;;;;;;;9.07;2.80;;;;;;;26.14;80.70;101219.19;10451741;28;20049;-78
2023/11/23 12:37:13;;;;;;;10.40;2.78;;;;;;;26.29;72.23;101226.72;10455713;28;20049;-81
2023/11/23 12:42:38;;;;;;;13.00;5.55;;;;;;;25.97;72.27;101219.91;10445359;28;20045;-79
2023/11/23 12:48:02;;;;;;;12.63;4.10;;;;;;;25.62;81.25;101217.72;10452396;28;20037;-86
2023/11/23 12:53:25;;;;;;;7.68;2.33;;;;;;;24.58;81.55;101226.91;10450279;28;20059;-83
2023/11/23 12:58:51;;;;;;;5.05;2.30;;;;;;;24.31;86.96;101233.25;10461314;28;20052;-82
2023/11/23 13:04:19;;;;;;;5.30;2.88;;;;;;;23.90;89.01;101225.59;10452807;28;20053;-83
2023/11/23 13:10:02;;;;;;;10.35;2.65;;;;;;;23.35;94.35;101227.28;10451273;28;20113;-88
2023/11/23 13:15:28;;;;;;;4.07;2.60;;;;;;;23.42;95.08;101226.16;10450884;28;20044;-81
2023/11/23 13:20:52;;;;;;;5.22;2.38;;;;;;;23.63;88.48;101219.28;10444665;28;20049;-84
2023/11/23 13:26:17;;;;;;;4.15;2.53;;;;;;;23.64;85.31;101194.06;10453111;28;20114;-85
2023/11/23 13:31:43;;;;;;;4.10;2.45;;;;;;;23.94;82.68;101198.50;10438726;28;20072;-84
2023/11/23 13:37:08;;;;;;;6.50;2.30;;;;;;;24.04;81.62;101205.34;10452837;28;20045;-84
2023/11/23 13:42:33;;;;;;;7.50;2.60;;;;;;;24.29;83.38;101204.53;10437740;28;20122;-83
2023/11/23 13:48:00;;;;;;;9.50;2.90;;;;;;;24.06;86.99;101200.78;10444768;28;20133;-82
2023/11/23 13:53:25;;;;;;;8.20;2.53;;;;;;;23.57;91.64;101206.84;10446233;28;20064;-84
2023/11/23 13:58:51;;;;;;;8.57;3.30;;;;;;;23.01;97.12;101217.47;10465026;28;20051;-83
2023/11/23 14:04:18;;;;;;;6.25;2.78;;;;;;;22.51;100.00;101210.72;10451497;28;20111;-84
2023/11/23 14:09:46;;;;;;;5.35;2.80;;;;;;;22.19;99.77;101218.75;10435812;28;20048;-84
2023/11/23 14:15:11;;;;;;;5.13;2.50;;;;;;;22.14;100.00;101212.59;10440742;28;20061;-84
2023/11/23 14:20:37;;;;;;;10.00;2.80;;;;;;;21.89;100.00;101209.59;10454232;28;20069;-84
2023/11/23 14:26:01;;;;;;;9.55;2.90;;;;;;;21.63;100.00;101215.59;10455128;28;20069;-83
2023/11/23 14:31:27;;;;;;;7.15;3.00;;;;;;;21.41;100.00;101204.41;10413296;28;20052;-83
2023/11/23 14:36:55;;;;;;;7.55;3.60;;;;;;;21.37;100.00;101218.84;10419677;28;20115;-83
2023/11/23 14:42:19;;;;;;;11.80;3.42;;;;;;;20.97;100.00;101213.38;10439417;28;20041;-83
2023/11/23 14:47:44;;;;;;;6.95;4.07;;;;;;;20.67;100.00;101228.28;10439161;28;20060;-83
2023/11/23 14:53:10;;;;;;;12.02;5.15;;;;;;;20.39;100.00;101229.69;10442095;28;20053;-82
2023/11/23 14:58:33;;;;;;;8.27;4.20;;;;;;;20.06;100.00;101222.16;10450424;28;20489;-82
2023/11/23 15:03:57;;;;;;;13.15;4.10;;;;;;;19.92;100.00;101225.03;10451189;28;20049;-83
2023/11/23 15:09:22;;;;;;;17.95;8.82;;;;;;;19.58;100.00;101221.97;10451360;28;20107;-82
2023/11/23 15:14:46;;;;;;;15.20;9.80;;;;;;;19.25;100.00;101227.75;10436903;28;20131;-80
2023/11/23 15:20:11;;;;;;;21.67;14.32;;;;;;;19.21;100.00;101237.63;10410407;28;20045;-81
2023/11/23 15:25:36;;;;;;;24.52;14.27;;;;;;;19.19;100.00;101236.72;10419935;28;20052;-79
2023/11/23 15:31:00;;;;;;;17.20;10.93;;;;;;;19.22;100.00;101244.75;10395693;28;20089;-84
2023/11/23 15:36:24;;;;;;;17.63;10.07;;;;;;;19.01;100.00;101237.84;10411601;28;20052;-81
2023/11/23 15:41:49;;;;;;;15.70;9.13;;;;;;;18.70;100.00;101239.09;10427085;28;20175;-82
2023/11/23 15:47:14;;;;;;;36.83;24.15;;;;;;;18.45;100.00;101248.19;10433352;28;20089;-83
2023/11/23 15:52:38;;;;;;;60.10;29.20;;;;;;;18.17;100.00;101248.44;10431544;28;20501;-83
2023/11/23 15:58:03;;;;;;;36.50;19.38;;;;;;;18.08;100.00;101255.63;10436021;28;20444;-83
2023/11/23 16:03:28;;;;;;;16.80;10.25;;;;;;;17.89;100.00;101258.44;10442603;28;20084;-82
2023/11/23 16:08:53;;;;;;;24.35;10.85;;;;;;;17.70;100.00;101271.91;10422386;28;20072;-82
2023/11/23 16:14:19;;;;;;;13.98;7.60;;;;;;;17.82;100.00;101277.16;10437430;28;20064;-83
2023/11/23 16:19:42;;;;;;;11.00;6.45;;;;;;;17.76;100.00;101274.53;10427855;28;20478;-83
2023/11/23 16:25:08;;;;;;;31.10;14.07;;;;;;;17.67;100.00;101280.78;10432407;28;20061;-83
2023/11/23 16:30:33;;;;;;;82.13;32.03;;;;;;;17.73;100.00;101279.88;10430347;28;20055;-81
2023/11/23 16:35:56;;;;;;;19.75;10.23;;;;;;;17.62;100.00;101279.94;10426764;28;20041;-80
2023/11/23 16:41:20;;;;;;;13.25;6.82;;;;;;;17.56;100.00;101279.06;10439864;28;20040;-81
2023/11/23 16:46:45;;;;;;;12.70;6.68;;;;;;;17.65;100.00;101271.94;10433379;28;20037;-86
2023/11/23 16:52:09;;;;;;;13.52;6.20;;;;;;;17.73;100.00;101272.75;10443452;28;20099;-80
2023/11/23 16:57:33;;;;;;;14.18;7.47;;;;;;;17.62;100.00;101269.25;10444685;28;20049;-83
2023/11/23 17:03:04;;;;;;;11.50;6.30;;;;;;;17.58;100.00;101266.59;10437917;28;20049;-86
2023/11/23 17:08:28;;;;;;;12.80;6.65;;;;;;;17.50;100.00;101263.94;10430453;28;20049;-80
2023/11/23 17:13:51;;;;;;;14.13;6.15;;;;;;;17.41;100.00;101263.97;10421239;28;20064;-79
2023/11/23 17:19:16;;;;;;;14.30;5.88;;;;;;;17.32;100.00;101259.59;10408886;28;20041;-80
2023/11/23 17:24:43;;;;;;;13.95;6.40;;;;;;;17.31;100.00;101267.59;10429890;28;20563;-82
2023/11/23 17:30:08;;;;;;;16.67;8.07;;;;;;;17.24;100.00;101245.38;10427762;28;20049;-80
2023/11/23 17:35:33;;;;;;;18.95;6.38;;;;;;;17.13;100.00;101263.22;10415027;28;20119;-80
2023/11/23 17:40:56;;;;;;;14.35;7.68;;;;;;;17.08;100.00;101268.53;10439821;28;20045;-85
2023/11/23 17:46:22;;;;;;;15.48;6.55;;;;;;;17.15;100.00;101266.75;10438650;28;20053;-80
2023/11/23 17:51:46;;;;;;;27.10;15.77;;;;;;;17.01;100.00;101268.56;10434009;28;20136;-81
2023/11/23 17:57:10;;;;;;;46.08;25.58;;;;;;;17.04;100.00;101273.91;10430122;28;20106;-82
2023/11/23 18:02:35;;;;;;;34.63;20.70;;;;;;;16.85;100.00;101283.72;10442711;28;20051;-82
2023/11/23 18:08:01;;;;;;;17.40;12.18;;;;;;;16.97;100.00;101274.81;10432328;28;20135;-82
2023/11/23 18:13:26;;;;;;;21.50;11.82;;;;;;;16.79;100.00;101275.75;10455817;28;20052;-82
2023/11/23 18:18:49;;;;;;;16.55;10.05;;;;;;;16.61;100.00;101276.63;10439187;28;20095;-81
2023/11/23 18:24:15;;;;;;;16.83;7.93;;;;;;;16.66;100.00;101276.66;10457842;28;20069;-84
2023/11/23 18:29:38;;;;;;;12.32;6.50;;;;;;;17.05;100.00;101286.34;10457934;28;20068;-83
2023/11/23 18:35:01;;;;;;;12.50;5.65;;;;;;;16.96;100.00;101278.38;10458524;28;20056;-83
2023/11/23 18:40:26;;;;;;;15.40;6.93;;;;;;;16.83;100.00;101263.28;10457309;28;20076;-85
2023/11/23 18:45:51;;;;;;;14.60;6.68;;;;;;;16.55;100.00;101275.72;10456518;28;20489;-83
2023/11/23 18:51:15;;;;;;;36.00;21.05;;;;;;;16.58;100.00;101286.38;10441057;28;20505;-82
2023/11/23 18:56:40;;;;;;;18.08;9.63;;;;;;;16.49;100.00;101291.72;10425022;28;20466;-81
2023/11/23 19:02:04;;;;;;;12.43;6.30;;;;;;;16.51;100.00;101274.84;10426814;28;20049;-82
2023/11/23 19:07:28;;;;;;;11.85;7.05;;;;;;;16.43;100.00;101281.94;10414265;28;20041;-82
2023/11/23 19:12:53;;;;;;;15.27;6.53;;;;;;;16.34;100.00;101281.97;10450335;28;20676;-87
2023/11/23 19:18:17;;;;;;;17.08;8.38;;;;;;;16.29;100.00;101276.59;10437991;28;20055;-83
2023/11/23 19:23:42;;;;;;;18.70;8.27;;;;;;;16.22;100.00;101273.94;10449852;28;20045;-81
2023/11/23 19:29:09;;;;;;;16.25;7.47;;;;;;;16.17;100.00;101265.06;10467062;28;20060;-84
2023/11/23 19:34:33;;;;;;;12.82;7.97;;;;;;;16.18;100.00;101264.19;10452070;28;20047;-83
2023/11/23 19:39:57;;;;;;;15.70;7.30;;;;;;;16.14;100.00;101251.75;10466959;28;20098;-82
2023/11/23 19:45:23;;;;;;;12.07;6.40;;;;;;;16.17;100.00;101244.63;10454115;28;20056;-84
2023/11/23 19:50:47;;;;;;;13.43;5.60;;;;;;;16.20;100.00;101254.41;10466875;28;20056;-83
2023/11/23 19:56:11;;;;;;;11.65;6.82;;;;;;;16.15;100.00;101261.50;10453459;28;20049;-82
2023/11/23 20:01:36;;;;;;;17.50;7.35;;;;;;;16.12;100.00;101257.06;10451992;28;20049;-84
2023/11/23 20:07:00;;;;;;;17.25;6.72;;;;;;;16.53;100.00;101259.75;10442576;28;20080;-82
2023/11/23 20:12:24;;;;;;;11.88;6.78;;;;;;;16.66;100.00;101271.31;10451001;28;20497;-84
2023/11/23 20:17:49;;;;;;;19.60;14.18;;;;;;;16.48;100.00;101255.28;10450320;28;20358;-84
2023/11/23 20:23:13;;;;;;;24.45;13.23;;;;;;;16.31;100.00;101268.63;10427847;28;20044;-84
2023/11/23 20:28:36;;;;;;;14.73;8.23;;;;;;;16.39;100.00;101264.19;10449980;28;20060;-83
2023/11/23 20:34:01;;;;;;;19.25;7.40;;;;;;;16.55;100.00;101257.94;10419596;28;20049;-83
2023/11/23 20:39:28;;;;;;;14.45;7.97;;;;;;;16.61;100.00;101257.09;10435515;28;20048;-83
2023/11/23 20:44:51;;;;;;;13.77;8.18;;;;;;;16.55;100.00;101249.94;10412894;28;20045;-83
2023/11/23 20:50:16;;;;;;;17.40;8.93;;;;;;;16.69;100.00;101250.84;10447942;28;20049;-84
2023/11/23 20:55:40;;;;;;;15.80;9.38;;;;;;;16.86;100.00;101239.28;10456345;28;20037;-84
2023/11/23 21:01:05;;;;;;;14.90;8.50;;;;;;;16.66;100.00;101232.22;10466160;28;20071;-84
2023/11/23 21:06:32;;;;;;;14.02;5.43;;;;;;;16.85;100.00;101232.16;10452877;28;20119;-83
2023/11/23 21:11:56;;;;;;;20.15;10.30;;;;;;;16.81;100.00;101231.28;10442419;28;20527;-84
2023/11/23 21:17:19;;;;;;;8.85;6.32;;;;;;;16.77;100.00;101215.28;10442248;28;20136;-84
2023/11/23 21:22:44;;;;;;;8.63;5.53;;;;;;;17.26;100.00;101200.03;10456580;28;20053;-84
2023/11/23 21:28:08;;;;;;;15.38;7.93;;;;;;;17.49;100.00;101204.34;10455649;28;20051;-83
2023/11/23 21:33:32;;;;;;;19.55;10.38;;;;;;;17.34;100.00;101199.06;10455217;28;20088;-82
2023/11/23 21:38:57;;;;;;;13.60;8.10;;;;;;;17.26;100.00;101206.25;10441618;28;20493;-82
2023/11/23 21:44:21;;;;;;;20.13;8.90;;;;;;;17.39;100.00;101191.06;10442035;28;20049;-83
2023/11/23 21:49:44;;;;;;;17.45;7.80;;;;;;;17.44;100.00;101183.91;10435662;28;20076;-82
2023/11/23 21:55:10;;;;;;;12.73;6.82;;;;;;;17.49;100.00;101179.41;10423555;28;20044;-82
2023/11/23 22:00:36;;;;;;;14.50;6.93;;;;;;;17.59;100.00;101169.59;10439699;28;20059;-82
2023/11/23 22:06:04;;;;;;;12.75;6.43;;;;;;;17.59;100.00;101157.09;10454545;28;20049;-82
2023/11/23 22:11:30;;;;;;;9.80;5.18;;;;;;;17.65;100.00;101151.78;10420941;28;20041;-82
2023/11/23 22:16:55;;;;;;;10.48;6.20;;;;;;;17.74;100.00;101151.69;10434516;28;20149;-82
2023/11/23 22:22:19;;;;;;;10.65;5.63;;;;;;;17.83;100.00;101153.41;10439051;28;20044;-82
2023/11/23 22:27:44;;;;;;;10.35;6.00;;;;;;;17.43;100.00;101145.63;10452802;28;20045;-82
2023/11/23 22:33:12;;;;;;;10.55;6.15;;;;;;;17.41;100.00;101141.19;10466486;28;20048;-82
2023/11/23 22:38:36;;;;;;;11.70;6.78;;;;;;;17.19;100.00;101143.13;10439559;28;20053;-83
2023/11/23 22:44:02;;;;;;;15.63;7.82;;;;;;;16.86;100.00;101148.63;10438354;28;20041;-83
2023/11/23 22:49:26;;;;;;;17.88;7.72;;;;;;;16.65;100.00;101142.47;10452657;28;20092;-83
2023/11/23 22:54:49;;;;;;;11.00;6.55;;;;;;;16.65;100.00;101134.47;10452283;28;20056;-83
2023/11/23 23:00:26;;;;;;;14.50;6.15;;;;;;;16.85;100.00;101117.50;10437509;28;20047;-83
2023/11/23 23:05:50;;;;;;;12.90;7.43;;;;;;;16.73;100.00;101100.69;10451759;28;20096;-82
2023/11/23 23:11:13;;;;;;;10.13;4.80;;;;;;;16.72;100.00;101088.22;10451471;28;20051;-82
2023/11/23 23:16:38;;;;;;;11.00;5.82;;;;;;;16.84;100.00;101073.94;10437674;28;20210;-81
2023/11/23 23:22:01;;;;;;;13.45;6.45;;;;;;;16.78;100.00;101091.75;10437818;28;20660;-83
2023/11/23 23:27:25;;;;;;;17.92;6.93;;;;;;;16.59;100.00;101073.16;10451915;28;20060;-83
2023/11/23 23:32:50;;;;;;;16.17;5.47;;;;;;;16.35;100.00;101079.44;10450962;28;20045;-85
2023/11/23 23:38:13;;;;;;;13.80;6.55;;;;;;;16.37;100.00;101070.53;10451440;28;20051;-85
2023/11/23 23:43:37;;;;;;;20.25;6.97;;;;;;;16.23;100.00;101075.91;10450346;28;20052;-82
2023/11/23 23:49:02;;;;;;;11.70;5.80;;;;;;;16.15;100.00;101067.03;10465261;28;20073;-84
2023/11/23 23:54:25;;;;;;;15.52;6.10;;;;;;;16.39;100.00;101079.44;10434990;28;20063;-82
2023/11/23 23:59:49;;;;;;;10.50;5.80;;;;;;;16.18;100.00;101073.28;10450370;28;20041;-84
